Time;durP1;ratioP1;P1;durP2;ratioP2;P2;SDS_P1;SDS_P2;PMS_P1;PMS_P2;Temp;Humidity;BMP_temperature;BMP_pressure;BME280_temperature;BME280_humidity;BME280_pressure;Samples;Min_cycle;Max_cycle;Signal;HPM_P1;HPM_P2
2021/09/08 00:01:41;;;;;;;;;;;23.10;58.20;;;;;;4991482;28;20234;-67
2021/09/08 00:04:08;;;;;;;;;;;23.10;58.20;;;;;;4991333;28;19937;-66
2021/09/08 00:06:35;;;;;;;;;;;23.10;58.20;;;;;;4991430;28;20322;-67
2021/09/08 00:09:03;;;;;;;;;;;23.10;58.20;;;;;;4990549;28;19926;-66
2021/09/08 00:11:30;;;;;;;;;;;23.10;58.10;;;;;;4990072;28;19933;-67
2021/09/08 00:13:56;;;;;;;;;;;23.10;58.20;;;;;;4991435;28;19961;-67
2021/09/08 00:16:23;;;;;;;;;;;23.10;58.10;;;;;;4990154;28;19967;-66
2021/09/08 00:18:50;;;;;;;;;;;23.10;58.10;;;;;;4991174;28;19995;-67
2021/09/08 00:21:17;;;;;;;;;;;23.10;58.10;;;;;;4989993;28;19975;-66
2021/09/08 00:23:44;;;;;;;;;;;23.00;58.00;;;;;;4989590;28;19956;-67
2021/09/08 00:26:11;;;;;;;;;;;23.10;58.10;;;;;;4991090;28;20011;-67
2021/09/08 00:28:38;;;;;;;;;;;23.10;58.10;;;;;;4990662;28;20373;-66
2021/09/08 00:31:05;;;;;;;;;;;23.00;58.00;;;;;;4990877;28;19925;-67
2021/09/08 00:33:32;;;;;;;;;;;23.10;58.10;;;;;;4990952;28;20386;-66
2021/09/08 00:35:59;;;;;;;;;;;23.00;57.90;;;;;;4989708;28;19930;-66
2021/09/08 00:38:27;;;;;;;;;;;23.00;57.90;;;;;;4991028;28;20018;-65
2021/09/08 00:40:55;;;;;;;;;;;23.10;58.60;;;;;;4990716;28;20336;-66
2021/09/08 00:43:22;;;;;;;;;;;23.00;57.90;;;;;;4990639;28;19991;-66
2021/09/08 00:45:50;;;;;;;;;;;23.10;57.90;;;;;;4990870;28;19949;-66
2021/09/08 00:48:17;;;;;;;;;;;23.10;57.90;;;;;;4990604;28;19925;-67
2021/09/08 00:50:45;;;;;;;;;;;23.00;57.80;;;;;;4989594;28;19926;-66
2021/09/08 00:53:14;;;;;;;;;;;23.00;57.80;;;;;;4992591;28;20442;-67
2021/09/08 00:55:43;;;;;;;;;;;23.00;58.40;;;;;;4990537;28;21900;-66
2021/09/08 00:58:10;;;;;;;;;;;23.10;57.90;;;;;;4988867;28;19976;-66
2021/09/08 01:00:38;;;;;;;;;;;23.00;57.80;;;;;;4989217;28;19955;-66
2021/09/08 01:03:05;;;;;;;;;;;23.00;57.80;;;;;;4990597;28;19973;-66
2021/09/08 01:05:32;;;;;;;;;;;23.00;57.80;;;;;;4990347;28;19933;-67
2021/09/08 01:08:00;;;;;;;;;;;23.00;57.70;;;;;;4989242;28;19929;-67
2021/09/08 01:10:27;;;;;;;;;;;23.10;57.90;;;;;;4990463;28;19972;-66
2021/09/08 01:12:55;;;;;;;;;;;23.00;57.70;;;;;;4989950;28;19979;-67
2021/09/08 01:15:22;;;;;;;;;;;23.00;57.70;;;;;;4990177;28;19926;-66
2021/09/08 01:17:49;;;;;;;;;;;23.00;57.70;;;;;;4990081;28;19987;-66
2021/09/08 01:20:16;;;;;;;;;;;23.00;57.60;;;;;;4990144;28;19930;-66
2021/09/08 01:22:46;;;;;;;;;;;23.00;57.60;;;;;;4993893;28;19990;-66
2021/09/08 01:25:20;;;;;;;;;;;23.00;57.90;;;;;;4975533;28;19930;-66
2021/09/08 01:27:48;;;;;;;;;;;23.00;57.60;;;;;;4977576;28;19987;-67
2021/09/08 01:30:19;;;;;;;;;;;23.00;57.60;;;;;;4977034;28;19966;-66
2021/09/08 01:32:50;;;;;;;;;;;23.00;57.60;;;;;;4993574;28;19926;-66
2021/09/08 01:35:18;;;;;;;;;;;23.00;57.60;;;;;;4992471;28;19926;-66
2021/09/08 01:37:46;;;;;;;;;;;23.00;57.60;;;;;;4993099;28;20289;-66
2021/09/08 01:40:13;;;;;;;;;;;23.00;57.50;;;;;;4992496;28;20330;-67
2021/09/08 01:42:41;;;;;;;;;;;23.00;57.50;;;;;;4992516;28;19956;-66
2021/09/08 01:45:11;;;;;;;;;;;23.00;57.50;;;;;;4993196;28;19926;-66
2021/09/08 01:47:38;;;;;;;;;;;23.00;57.50;;;;;;4993091;28;19971;-66
2021/09/08 01:50:06;;;;;;;;;;;23.00;57.50;;;;;;4976320;28;19926;-66
2021/09/08 01:52:34;;;;;;;;;;;23.00;57.50;;;;;;5042901;28;19985;-67
2021/09/08 01:55:01;;;;;;;;;;;23.00;57.50;;;;;;5012174;28;19955;-67
2021/09/08 01:57:29;;;;;;;;;;;23.00;57.50;;;;;;4991661;28;19933;-66
2021/09/08 01:59:56;;;;;;;;;;;23.00;57.50;;;;;;4993249;28;19925;-66
2021/09/08 02:02:23;;;;;;;;;;;23.00;57.40;;;;;;4991701;28;19925;-66
2021/09/08 02:04:50;;;;;;;;;;;23.00;57.40;;;;;;4992197;28;19965;-67
2021/09/08 02:07:17;;;;;;;;;;;23.00;57.40;;;;;;4993148;28;20340;-66
2021/09/08 02:09:45;;;;;;;;;;;23.00;57.40;;;;;;4975629;28;19926;-66
2021/09/08 02:12:12;;;;;;;;;;;23.00;57.40;;;;;;4991893;28;20355;-66
2021/09/08 02:14:39;;;;;;;;;;;23.00;57.40;;;;;;4991703;28;19979;-66
2021/09/08 02:17:06;;;;;;;;;;;23.00;57.30;;;;;;4992354;28;19929;-66
2021/09/08 02:19:33;;;;;;;;;;;23.00;57.30;;;;;;4992623;28;19932;-67
2021/09/08 02:22:00;;;;;;;;;;;23.00;57.30;;;;;;4993190;28;19926;-66
2021/09/08 02:24:27;;;;;;;;;;;23.00;57.30;;;;;;4992975;28;19977;-66
2021/09/08 02:26:54;;;;;;;;;;;23.00;57.30;;;;;;4991791;28;19987;-67
2021/09/08 02:29:21;;;;;;;;;;;23.00;57.30;;;;;;4993261;28;20342;-66
2021/09/08 02:31:48;;;;;;;;;;;23.00;57.30;;;;;;4991254;28;19962;-66
2021/09/08 02:34:15;;;;;;;;;;;23.00;57.30;;;;;;4992572;28;20385;-67
2021/09/08 02:36:42;;;;;;;;;;;23.00;57.30;;;;;;4975291;28;19926;-67
2021/09/08 02:39:10;;;;;;;;;;;23.00;57.30;;;;;;4992803;28;20285;-67
2021/09/08 02:41:37;;;;;;;;;;;23.00;57.20;;;;;;4992669;28;19926;-66
2021/09/08 02:44:04;;;;;;;;;;;23.00;57.20;;;;;;4974256;28;20336;-67
2021/09/08 02:46:31;;;;;;;;;;;23.00;57.20;;;;;;4992183;28;20408;-66
2021/09/08 02:48:58;;;;;;;;;;;23.00;57.20;;;;;;4991485;28;19948;-66
2021/09/08 02:51:25;;;;;;;;;;;23.00;57.20;;;;;;4993384;28;20355;-67
2021/09/08 02:53:52;;;;;;;;;;;22.90;57.10;;;;;;5018786;28;20457;-66
2021/09/08 02:56:19;;;;;;;;;;;23.00;57.20;;;;;;4990807;28;20425;-66
2021/09/08 02:58:46;;;;;;;;;;;23.00;57.20;;;;;;4991066;28;19969;-66
2021/09/08 03:01:13;;;;;;;;;;;23.00;57.20;;;;;;4991346;28;19998;-66
2021/09/08 03:03:40;;;;;;;;;;;23.00;57.20;;;;;;4991170;28;19932;-67
2021/09/08 03:06:08;;;;;;;;;;;22.90;57.00;;;;;;4990864;28;19932;-67
2021/09/08 03:08:35;;;;;;;;;;;23.00;57.70;;;;;;4990864;28;19969;-67
2021/09/08 03:11:02;;;;;;;;;;;22.90;57.00;;;;;;4974698;28;20039;-66
2021/09/08 03:13:29;;;;;;;;;;;23.00;57.10;;;;;;4991628;28;19961;-67
2021/09/08 03:15:56;;;;;;;;;;;22.90;57.00;;;;;;4974867;28;20365;-66
2021/09/08 03:18:23;;;;;;;;;;;22.90;57.00;;;;;;4990671;28;19933;-66
2021/09/08 03:20:50;;;;;;;;;;;22.90;57.00;;;;;;4996859;28;19969;-66
2021/09/08 03:23:17;;;;;;;;;;;23.00;57.00;;;;;;4992070;28;19976;-66
2021/09/08 03:25:44;;;;;;;;;;;22.90;57.00;;;;;;4974819;28;20386;-66
2021/09/08 03:28:11;;;;;;;;;;;23.00;57.00;;;;;;4990648;28;19930;-67
2021/09/08 03:30:38;;;;;;;;;;;23.00;57.00;;;;;;4990979;28;19930;-66
2021/09/08 03:33:05;;;;;;;;;;;22.90;56.90;;;;;;4990717;28;20285;-66
2021/09/08 03:35:32;;;;;;;;;;;22.90;56.90;;;;;;4991777;28;19932;-67
2021/09/08 03:37:59;;;;;;;;;;;22.90;56.80;;;;;;4990693;28;19966;-67
2021/09/08 03:40:26;;;;;;;;;;;22.90;56.90;;;;;;4991813;28;19930;-66
2021/09/08 03:42:53;;;;;;;;;;;22.90;56.80;;;;;;4990271;28;19972;-67
2021/09/08 03:45:20;;;;;;;;;;;22.90;56.80;;;;;;4990512;28;19925;-66
2021/09/08 03:47:47;;;;;;;;;;;22.90;56.80;;;;;;4991445;28;19930;-67
2021/09/08 03:50:15;;;;;;;;;;;22.90;56.80;;;;;;4991569;28;19968;-67
2021/09/08 03:52:42;;;;;;;;;;;22.90;56.80;;;;;;4992265;28;19926;-67
2021/09/08 03:55:09;;;;;;;;;;;22.90;56.80;;;;;;4990252;28;19973;-67
2021/09/08 03:57:37;;;;;;;;;;;22.90;56.80;;;;;;4990877;28;19925;-66
2021/09/08 04:00:05;;;;;;;;;;;22.90;56.80;;;;;;4991270;28;19926;-67
2021/09/08 04:02:32;;;;;;;;;;;22.90;56.80;;;;;;4990392;28;19975;-66
2021/09/08 04:04:59;;;;;;;;;;;22.90;56.80;;;;;;4991384;28;19933;-67
2021/09/08 04:07:27;;;;;;;;;;;22.90;56.80;;;;;;4990935;28;19943;-67
2021/09/08 04:09:55;;;;;;;;;;;22.90;56.80;;;;;;4991050;28;19966;-67
2021/09/08 04:12:25;;;;;;;;;;;22.90;56.70;;;;;;4991124;28;19940;-68
2021/09/08 04:14:53;;;;;;;;;;;22.90;56.70;;;;;;4990038;28;19969;-66
2021/09/08 04:17:21;;;;;;;;;;;22.90;56.70;;;;;;4990034;28;19976;-66
2021/09/08 04:19:48;;;;;;;;;;;22.90;56.70;;;;;;4989780;28;19926;-67
2021/09/08 04:22:15;;;;;;;;;;;22.90;56.70;;;;;;4989788;28;20416;-66
2021/09/08 04:24:43;;;;;;;;;;;22.90;56.60;;;;;;4990971;28;19930;-67
2021/09/08 04:27:10;;;;;;;;;;;22.90;56.60;;;;;;4990643;28;20446;-67
2021/09/08 04:29:37;;;;;;;;;;;22.90;56.60;;;;;;4991147;28;19969;-66
2021/09/08 04:32:04;;;;;;;;;;;22.90;56.60;;;;;;4989124;28;20271;-66
2021/09/08 04:34:32;;;;;;;;;;;22.90;56.60;;;;;;4990694;28;19926;-67
2021/09/08 04:36:59;;;;;;;;;;;22.90;56.60;;;;;;4990495;28;20451;-66
2021/09/08 04:39:27;;;;;;;;;;;22.90;56.60;;;;;;4989845;28;19926;-67
2021/09/08 04:41:54;;;;;;;;;;;22.90;56.50;;;;;;4990503;28;19925;-67
2021/09/08 04:44:20;;;;;;;;;;;22.90;56.50;;;;;;4990663;28;20364;-67
2021/09/08 04:46:47;;;;;;;;;;;22.90;56.50;;;;;;4990862;28;19926;-67
2021/09/08 04:49:15;;;;;;;;;;;22.90;56.50;;;;;;4990473;28;20446;-67
2021/09/08 04:51:42;;;;;;;;;;;22.90;56.50;;;;;;5002545;28;20362;-67
2021/09/08 04:54:09;;;;;;;;;;;22.90;56.40;;;;;;5031439;28;19929;-67
2021/09/08 04:56:36;;;;;;;;;;;22.90;56.40;;;;;;4988932;28;19926;-67
2021/09/08 04:59:03;;;;;;;;;;;22.90;56.30;;;;;;4990531;28;19930;-66
2021/09/08 05:01:30;;;;;;;;;;;22.90;56.30;;;;;;4990744;28;19987;-67
2021/09/08 05:03:58;;;;;;;;;;;22.90;56.30;;;;;;4989192;28;20004;-66
2021/09/08 05:06:25;;;;;;;;;;;22.90;56.30;;;;;;4976346;28;20405;-67
2021/09/08 05:08:52;;;;;;;;;;;22.90;56.30;;;;;;4989388;28;19926;-66
2021/09/08 05:11:19;;;;;;;;;;;22.90;56.20;;;;;;4990514;28;21579;-67
2021/09/08 05:13:46;;;;;;;;;;;22.90;56.20;;;;;;4990240;28;19934;-67
2021/09/08 05:16:13;;;;;;;;;;;22.90;56.10;;;;;;4989765;28;19991;-66
2021/09/08 05:18:40;;;;;;;;;;;22.90;56.10;;;;;;4972127;28;19934;-67
2021/09/08 05:21:07;;;;;;;;;;;22.90;56.10;;;;;;4990412;28;20028;-67
2021/09/08 05:23:34;;;;;;;;;;;23.00;56.20;;;;;;4990186;28;20016;-67
2021/09/08 05:26:01;;;;;;;;;;;22.90;56.10;;;;;;4989202;28;20404;-67
2021/09/08 05:28:28;;;;;;;;;;;23.00;56.10;;;;;;4989017;28;19965;-67
2021/09/08 05:30:55;;;;;;;;;;;23.00;56.10;;;;;;4990268;28;19926;-66
2021/09/08 05:33:23;;;;;;;;;;;23.00;56.00;;;;;;4988825;28;20013;-66
2021/09/08 05:35:50;;;;;;;;;;;23.00;56.00;;;;;;4989829;28;19926;-67
2021/09/08 05:38:18;;;;;;;;;;;23.00;56.00;;;;;;4989023;28;19971;-66
2021/09/08 05:40:45;;;;;;;;;;;23.00;56.00;;;;;;4989845;28;19925;-66
2021/09/08 05:43:12;;;;;;;;;;;23.00;55.90;;;;;;4971625;28;19983;-67
2021/09/08 05:45:39;;;;;;;;;;;23.00;55.90;;;;;;4988767;28;19976;-66
2021/09/08 05:48:06;;;;;;;;;;;23.00;55.80;;;;;;4988609;28;19932;-66
2021/09/08 05:50:33;;;;;;;;;;;23.00;55.80;;;;;;4988901;28;19930;-66
2021/09/08 05:53:03;;;;;;;;;;;23.00;55.80;;;;;;5005034;28;19926;-66
2021/09/08 05:55:30;;;;;;;;;;;23.00;55.80;;;;;;4990100;28;19926;-66
2021/09/08 05:57:57;;;;;;;;;;;23.00;55.80;;;;;;4989333;28;19984;-66
2021/09/08 06:00:24;;;;;;;;;;;23.00;55.70;;;;;;4989615;28;20071;-67
2021/09/08 06:02:51;;;;;;;;;;;23.10;55.80;;;;;;4989395;28;19926;-66
2021/09/08 06:05:19;;;;;;;;;;;23.00;55.70;;;;;;4989643;28;20184;-67
2021/09/08 06:07:46;;;;;;;;;;;23.10;55.70;;;;;;4991522;28;19926;-67
2021/09/08 06:10:17;;;;;;;;;;;23.10;55.70;;;;;;4992811;28;19945;-66
2021/09/08 06:12:44;;;;;;;;;;;23.10;55.70;;;;;;4991653;28;19933;-67
2021/09/08 06:15:12;;;;;;;;;;;23.10;55.70;;;;;;4993137;28;20384;-67
2021/09/08 06:17:40;;;;;;;;;;;23.10;55.60;;;;;;4993083;28;19926;-67
2021/09/08 06:20:07;;;;;;;;;;;23.10;55.60;;;;;;4993129;28;19925;-66
2021/09/08 06:22:34;;;;;;;;;;;23.10;55.60;;;;;;4991937;28;19935;-66
2021/09/08 06:25:02;;;;;;;;;;;23.10;55.60;;;;;;4992190;28;19926;-66
2021/09/08 06:27:29;;;;;;;;;;;23.10;55.60;;;;;;4991787;28;19966;-66
2021/09/08 06:29:56;;;;;;;;;;;23.10;55.50;;;;;;4992831;28;19953;-66
2021/09/08 06:32:23;;;;;;;;;;;23.10;55.50;;;;;;4991393;28;19926;-66
2021/09/08 06:34:50;;;;;;;;;;;23.10;55.50;;;;;;4992680;28;19956;-66
2021/09/08 06:37:17;;;;;;;;;;;23.20;55.60;;;;;;4992687;28;19933;-66
2021/09/08 06:39:44;;;;;;;;;;;23.20;55.50;;;;;;4991764;28;19926;-67
2021/09/08 06:42:11;;;;;;;;;;;23.20;55.50;;;;;;4992327;28;19930;-67
2021/09/08 06:44:38;;;;;;;;;;;23.20;55.40;;;;;;4991481;28;19987;-66
2021/09/08 06:47:05;;;;;;;;;;;23.20;55.50;;;;;;4992495;28;19926;-66
2021/09/08 06:49:32;;;;;;;;;;;23.20;55.40;;;;;;4992208;28;19969;-66
2021/09/08 06:51:59;;;;;;;;;;;23.20;55.40;;;;;;5016849;28;19981;-66
2021/09/08 06:54:26;;;;;;;;;;;23.20;55.40;;;;;;5030723;28;19926;-66
2021/09/08 06:56:53;;;;;;;;;;;23.20;55.40;;;;;;4991703;28;19930;-67
2021/09/08 06:59:20;;;;;;;;;;;23.20;55.40;;;;;;4995052;28;19948;-66
2021/09/08 07:02:01;;;;;;;;;;;23.20;55.40;;;;;;4984253;28;19971;-63
2021/09/08 07:04:42;;;;;;;;;;;23.20;55.40;;;;;;4996974;28;19922;-65
2021/09/08 07:07:23;;;;;;;;;;;23.20;55.40;;;;;;4999028;28;19928;-65
2021/09/08 07:09:55;;;;;;;;;;;23.20;55.40;;;;;;4992318;28;20009;-66
2021/09/08 07:12:22;;;;;;;;;;;23.20;55.40;;;;;;4990806;28;19948;-66
2021/09/08 07:14:49;;;;;;;;;;;23.20;55.40;;;;;;4991810;28;19926;-65
2021/09/08 07:17:16;;;;;;;;;;;23.20;55.40;;;;;;4990370;28;19926;-66
2021/09/08 07:19:43;;;;;;;;;;;23.20;55.40;;;;;;4991677;28;19933;-67
2021/09/08 07:22:10;;;;;;;;;;;23.20;55.40;;;;;;4990486;28;19980;-66
2021/09/08 07:24:38;;;;;;;;;;;23.20;55.40;;;;;;4991545;28;20343;-66
2021/09/08 07:27:05;;;;;;;;;;;23.20;55.40;;;;;;4990472;28;20420;-67
2021/09/08 07:29:32;;;;;;;;;;;23.20;55.40;;;;;;4990981;28;20344;-66
2021/09/08 07:31:59;;;;;;;;;;;23.30;55.50;;;;;;4991879;28;19925;-66
2021/09/08 07:34:26;;;;;;;;;;;23.30;55.50;;;;;;4990591;28;19930;-66
2021/09/08 07:36:53;;;;;;;;;;;23.30;55.50;;;;;;4991700;28;19966;-67
2021/09/08 07:39:20;;;;;;;;;;;23.30;55.50;;;;;;4990615;28;20286;-67
2021/09/08 07:41:47;;;;;;;;;;;23.30;55.50;;;;;;4991529;28;20335;-66
2021/09/08 07:44:14;;;;;;;;;;;23.30;55.50;;;;;;5004809;28;19926;-67
2021/09/08 07:46:41;;;;;;;;;;;23.30;55.50;;;;;;4991542;28;19926;-67
2021/09/08 07:49:08;;;;;;;;;;;23.30;55.40;;;;;;4990096;28;19926;-67
2021/09/08 07:51:35;;;;;;;;;;;23.40;55.40;;;;;;4999699;28;19929;-66
2021/09/08 07:54:02;;;;;;;;;;;23.40;55.40;;;;;;5023651;28;19926;-66
2021/09/08 07:56:29;;;;;;;;;;;23.40;55.40;;;;;;4990885;28;19926;-66
2021/09/08 07:58:56;;;;;;;;;;;23.40;55.40;;;;;;4991363;28;19925;-67
2021/09/08 08:01:24;;;;;;;;;;;23.50;55.40;;;;;;4990295;28;19926;-66
2021/09/08 08:03:51;;;;;;;;;;;23.50;55.40;;;;;;4991590;28;20371;-66
2021/09/08 08:06:19;;;;;;;;;;;23.50;55.30;;;;;;4991046;28;19926;-66
2021/09/08 08:08:46;;;;;;;;;;;23.50;55.30;;;;;;4991412;28;19976;-66
2021/09/08 08:11:13;;;;;;;;;;;23.50;55.40;;;;;;4991082;28;19951;-66
2021/09/08 08:13:41;;;;;;;;;;;23.50;55.40;;;;;;4990650;28;19930;-66
2021/09/08 08:16:28;;;;;;;;;;;23.60;55.40;;;;;;4989915;28;19926;-67
2021/09/08 08:18:55;;;;;;;;;;;23.60;55.40;;;;;;4990745;28;19964;-66
2021/09/08 08:21:22;;;;;;;;;;;23.60;55.40;;;;;;4991319;28;19926;-67
2021/09/08 08:23:49;;;;;;;;;;;23.60;55.40;;;;;;4990089;28;19981;-66
2021/09/08 08:26:18;;;;;;;;;;;23.70;55.40;;;;;;4990039;28;19927;-66
2021/09/08 08:28:45;;;;;;;;;;;23.70;55.40;;;;;;4989094;28;19933;-65
2021/09/08 08:31:12;;;;;;;;;;;23.70;55.40;;;;;;4990795;28;19979;-66
2021/09/08 08:33:39;;;;;;;;;;;23.70;55.50;;;;;;4990791;28;19949;-67
2021/09/08 08:36:06;;;;;;;;;;;23.70;55.50;;;;;;4991022;28;19979;-66
2021/09/08 08:38:33;;;;;;;;;;;23.70;55.50;;;;;;4973687;28;19926;-66
2021/09/08 08:41:00;;;;;;;;;;;23.70;55.40;;;;;;4990681;28;19934;-67
2021/09/08 08:43:27;;;;;;;;;;;23.70;55.50;;;;;;4989165;28;20252;-67
2021/09/08 08:45:54;;;;;;;;;;;23.70;55.50;;;;;;4990748;28;20366;-66
2021/09/08 08:48:22;;;;;;;;;;;23.70;55.60;;;;;;4989634;28;19926;-67
2021/09/08 08:50:49;;;;;;;;;;;23.70;55.60;;;;;;4990584;28;19926;-67
2021/09/08 08:53:16;;;;;;;;;;;23.70;55.70;;;;;;4977811;28;19926;-67
2021/09/08 08:55:43;;;;;;;;;;;23.70;55.80;;;;;;4990209;28;20385;-67
2021/09/08 08:58:10;;;;;;;;;;;23.70;55.80;;;;;;4988940;28;19930;-68
2021/09/08 09:00:39;;;;;;;;;;;23.70;55.90;;;;;;4990699;28;19930;-67
2021/09/08 09:03:06;;;;;;;;;;;23.70;55.90;;;;;;4990280;28;19933;-68
2021/09/08 09:05:38;;;;;;;;;;;23.70;55.90;;;;;;4990603;28;19949;-67
2021/09/08 09:08:07;;;;;;;;;;;23.70;56.00;;;;;;4990482;28;19930;-67
2021/09/08 09:10:34;;;;;;;;;;;23.70;56.00;;;;;;4990294;28;20439;-66
2021/09/08 09:13:02;;;;;;;;;;;23.70;56.00;;;;;;4989086;28;20383;-67
2021/09/08 09:15:29;;;;;;;;;;;23.70;56.00;;;;;;4990342;28;19926;-67
2021/09/08 09:17:57;;;;;;;;;;;23.70;56.00;;;;;;4989329;28;19925;-67
2021/09/08 09:20:25;;;;;;;;;;;23.70;56.00;;;;;;4989437;28;19955;-67
2021/09/08 09:22:54;;;;;;;;;;;23.70;56.00;;;;;;4989353;28;19926;-66
2021/09/08 09:25:23;;;;;;;;;;;23.80;56.10;;;;;;4989266;28;19971;-66
2021/09/08 09:27:51;;;;;;;;;;;23.80;56.10;;;;;;4989826;28;20343;-67
2021/09/08 09:30:20;;;;;;;;;;;23.80;56.10;;;;;;4989834;28;19930;-67
2021/09/08 09:32:48;;;;;;;;;;;23.80;56.10;;;;;;4990393;28;19979;-67
2021/09/08 09:35:16;;;;;;;;;;;23.80;56.20;;;;;;4989318;28;19926;-67
2021/09/08 09:37:45;;;;;;;;;;;23.80;56.20;;;;;;4990114;28;19925;-67
2021/09/08 09:40:12;;;;;;;;;;;23.80;56.20;;;;;;4988661;28;20013;-66
2021/09/08 09:42:40;;;;;;;;;;;23.80;56.20;;;;;;4992619;28;20005;-67
2021/09/08 09:45:08;;;;;;;;;;;23.80;56.10;;;;;;4993425;28;20013;-67
2021/09/08 09:47:36;;;;;;;;;;;23.80;56.10;;;;;;4992465;28;19929;-67
2021/09/08 09:50:05;;;;;;;;;;;23.80;56.10;;;;;;4992356;28;19975;-67
2021/09/08 09:52:33;;;;;;;;;;;23.90;56.20;;;;;;5041959;28;19924;-66
2021/09/08 09:55:01;;;;;;;;;;;23.90;56.20;;;;;;5011490;28;19990;-67
2021/09/08 09:57:28;;;;;;;;;;;23.90;56.20;;;;;;4992800;28;20420;-67
2021/09/08 09:59:56;;;;;;;;;;;23.90;56.80;;;;;;4992179;28;19930;-67
2021/09/08 10:02:23;;;;;;;;;;;23.90;56.10;;;;;;4992993;28;20381;-67
2021/09/08 10:04:51;;;;;;;;;;;23.90;56.10;;;;;;4992080;28;19934;-67
2021/09/08 10:07:19;;;;;;;;;;;23.90;56.20;;;;;;4993193;28;19933;-67
2021/09/08 10:09:49;;;;;;;;;;;23.90;56.20;;;;;;4991745;28;20381;-66
2021/09/08 10:12:18;;;;;;;;;;;23.90;56.10;;;;;;4992926;28;19926;-67
2021/09/08 10:14:47;;;;;;;;;;;23.90;56.20;;;;;;4991613;28;19972;-67
2021/09/08 10:17:16;;;;;;;;;;;23.90;56.20;;;;;;4992796;28;19925;-67
2021/09/08 10:19:43;;;;;;;;;;;23.90;56.20;;;;;;4975325;28;19977;-67
2021/09/08 10:22:11;;;;;;;;;;;23.90;56.20;;;;;;4992942;28;20029;-67
2021/09/08 10:24:45;;;;;;;;;;;23.90;56.20;;;;;;4991909;28;20340;-67
2021/09/08 10:27:19;;;;;;;;;;;23.90;56.20;;;;;;4991344;28;19926;-67
2021/09/08 10:29:48;;;;;;;;;;;23.90;56.20;;;;;;4992534;28;20393;-67
2021/09/08 10:32:15;;;;;;;;;;;23.90;56.20;;;;;;4992670;28;19925;-67
2021/09/08 10:34:43;;;;;;;;;;;23.90;56.30;;;;;;4991743;28;19966;-67
2021/09/08 10:37:11;;;;;;;;;;;23.90;56.20;;;;;;4991294;28;20455;-66
2021/09/08 10:39:39;;;;;;;;;;;23.90;56.20;;;;;;4992474;28;19968;-67
2021/09/08 10:42:06;;;;;;;;;;;23.90;56.30;;;;;;4974840;28;20361;-66
2021/09/08 10:44:45;;;;;;;;;;;23.90;56.20;;;;;;4992292;28;19926;-66
2021/09/08 10:47:13;;;;;;;;;;;23.90;56.30;;;;;;4975356;28;19930;-68
2021/09/08 10:49:40;;;;;;;;;;;23.90;56.20;;;;;;4991796;28;19983;-67
2021/09/08 10:52:07;;;;;;;;;;;23.90;56.20;;;;;;5019277;28;19924;-67
2021/09/08 10:54:52;;;;;;;;;;;23.90;56.10;;;;;;4992510;28;19925;-66
2021/09/08 10:57:34;;;;;;;;;;;23.90;56.20;;;;;;4991959;28;20002;-67
2021/09/08 11:00:03;;;;;;;;;;;23.90;56.20;;;;;;4992052;28;20401;-67
2021/09/08 11:02:31;;;;;;;;;;;23.90;56.20;;;;;;4992053;28;19943;-67
2021/09/08 11:04:59;;;;;;;;;;;23.90;56.20;;;;;;4992491;28;19926;-67
2021/09/08 11:07:26;;;;;;;;;;;23.90;56.10;;;;;;4992473;28;19930;-67
2021/09/08 11:09:53;;;;;;;;;;;23.90;56.10;;;;;;4991282;28;19926;-68
2021/09/08 11:12:20;;;;;;;;;;;24.00;56.20;;;;;;4991967;28;19952;-67
2021/09/08 11:14:48;;;;;;;;;;;24.00;56.20;;;;;;4974481;28;20447;-67
2021/09/08 11:17:21;;;;;;;;;;;23.90;56.10;;;;;;4990555;28;19926;-67
2021/09/08 11:19:52;;;;;;;;;;;23.90;56.10;;;;;;4991746;28;19933;-67
2021/09/08 11:22:19;;;;;;;;;;;23.90;56.70;;;;;;4992068;28;19995;-67
2021/09/08 11:25:00;;;;;;;;;;;23.90;56.20;;;;;;4991996;28;19987;-68
2021/09/08 11:27:27;;;;;;;;;;;24.00;56.20;;;;;;4991434;28;19929;-67
2021/09/08 11:30:04;;;;;;;;;;;23.90;56.20;;;;;;4990475;28;19933;-67
2021/09/08 11:32:51;;;;;;;;;;;24.00;56.30;;;;;;4990630;28;19930;-67
2021/09/08 11:35:36;;;;;;;;;;;24.00;56.30;;;;;;4991975;28;19952;-67
2021/09/08 11:38:06;;;;;;;;;;;23.90;56.30;;;;;;4991889;28;20348;-67
2021/09/08 11:40:34;;;;;;;;;;;23.90;56.30;;;;;;4991341;28;19975;-66
2021/09/08 11:43:01;;;;;;;;;;;23.90;56.30;;;;;;4990913;28;19930;-66
2021/09/08 11:45:29;;;;;;;;;;;23.90;56.30;;;;;;4991325;28;19926;-68
2021/09/08 11:47:56;;;;;;;;;;;24.00;56.40;;;;;;4991384;28;19926;-68
2021/09/08 11:50:24;;;;;;;;;;;24.00;56.40;;;;;;4990570;28;19929;-67
2021/09/08 11:52:55;;;;;;;;;;;24.00;56.40;;;;;;4995863;28;19983;-68
2021/09/08 11:55:22;;;;;;;;;;;24.00;56.40;;;;;;4991432;28;19950;-67
2021/09/08 11:57:49;;;;;;;;;;;24.00;56.40;;;;;;4990075;28;19961;-67
2021/09/08 12:00:17;;;;;;;;;;;24.00;56.40;;;;;;4991442;28;20020;-67
2021/09/08 12:02:44;;;;;;;;;;;24.00;56.40;;;;;;4991463;28;20323;-68
2021/09/08 12:05:18;;;;;;;;;;;24.00;56.40;;;;;;4990606;28;19991;-67
2021/09/08 12:07:45;;;;;;;;;;;23.90;56.40;;;;;;4991093;28;20434;-67
2021/09/08 12:10:12;;;;;;;;;;;24.00;56.50;;;;;;4990324;28;19925;-68
2021/09/08 12:12:40;;;;;;;;;;;24.00;56.40;;;;;;4989877;28;20439;-67
2021/09/08 12:15:07;;;;;;;;;;;24.00;56.40;;;;;;4991063;28;19933;-67
2021/09/08 12:17:53;;;;;;;;;;;24.00;56.40;;;;;;4991162;28;19926;-67
2021/09/08 12:20:21;;;;;;;;;;;24.00;56.40;;;;;;4990042;28;19979;-68
2021/09/08 12:22:48;;;;;;;;;;;24.00;56.40;;;;;;4991031;28;19929;-67
2021/09/08 12:25:17;;;;;;;;;;;24.00;56.40;;;;;;4990918;28;20381;-67
2021/09/08 12:27:45;;;;;;;;;;;24.00;56.30;;;;;;4991079;28;19925;-68
2021/09/08 12:30:15;;;;;;;;;;;24.00;56.30;;;;;;4991017;28;19955;-67
2021/09/08 12:32:44;;;;;;;;;;;24.00;56.30;;;;;;4991083;28;19955;-68
2021/09/08 12:35:30;;;;;;;;;;;24.00;56.90;;;;;;4991019;28;19979;-67
2021/09/08 12:37:57;;;;;;;;;;;24.00;56.30;;;;;;4990650;28;19984;-67
2021/09/08 12:40:25;;;;;;;;;;;24.00;56.30;;;;;;4990480;28;19976;-67
2021/09/08 12:42:52;;;;;;;;;;;24.00;56.30;;;;;;4990685;28;19925;-68
2021/09/08 12:45:19;;;;;;;;;;;24.00;56.30;;;;;;4990977;28;19926;-67
2021/09/08 12:47:56;;;;;;;;;;;24.00;56.20;;;;;;4990351;28;20029;-67
2021/09/08 12:50:23;;;;;;;;;;;24.00;56.20;;;;;;4990913;28;19955;-67
2021/09/08 12:52:51;;;;;;;;;;;24.00;56.20;;;;;;5045412;28;20383;-67
2021/09/08 12:55:18;;;;;;;;;;;24.00;56.20;;;;;;4989454;28;20393;-68
2021/09/08 12:57:45;;;;;;;;;;;24.00;56.20;;;;;;4990338;28;20528;-68
2021/09/08 13:00:12;;;;;;;;;;;24.00;56.10;;;;;;4990576;28;19955;-68
2021/09/08 13:02:39;;;;;;;;;;;24.00;56.10;;;;;;4990385;28;20393;-67
2021/09/08 13:05:06;;;;;;;;;;;24.00;56.10;;;;;;4990582;28;19979;-67
2021/09/08 13:07:34;;;;;;;;;;;24.00;56.10;;;;;;4973285;28;19932;-67
2021/09/08 13:10:01;;;;;;;;;;;23.90;56.00;;;;;;4989379;28;20312;-67
2021/09/08 13:12:28;;;;;;;;;;;24.00;56.00;;;;;;4989348;28;19926;-67
2021/09/08 13:14:55;;;;;;;;;;;24.00;56.00;;;;;;4990904;28;19926;-67
2021/09/08 13:17:22;;;;;;;;;;;24.00;56.00;;;;;;4994053;28;19930;-67
2021/09/08 13:19:49;;;;;;;;;;;23.90;55.90;;;;;;4975304;28;20399;-68
2021/09/08 13:22:16;;;;;;;;;;;24.00;56.00;;;;;;4993551;28;19926;-66
2021/09/08 13:24:43;;;;;;;;;;;23.90;55.80;;;;;;4992427;28;20021;-66
2021/09/08 13:27:10;;;;;;;;;;;24.00;55.90;;;;;;4993626;28;19926;-66
2021/09/08 13:29:38;;;;;;;;;;;23.90;55.80;;;;;;4992753;28;19926;-66
2021/09/08 13:32:05;;;;;;;;;;;24.00;55.80;;;;;;4993755;28;19926;-66
2021/09/08 13:34:32;;;;;;;;;;;24.00;55.90;;;;;;4993190;28;20021;-67
2021/09/08 13:36:59;;;;;;;;;;;23.90;55.70;;;;;;4993370;28;20447;-66
2021/09/08 13:39:26;;;;;;;;;;;24.00;55.80;;;;;;4992446;28;19934;-67
2021/09/08 13:41:53;;;;;;;;;;;24.00;55.80;;;;;;4993417;28;19926;-67
2021/09/08 13:44:20;;;;;;;;;;;24.00;55.80;;;;;;4993434;28;19930;-67
2021/09/08 13:46:47;;;;;;;;;;;23.90;55.60;;;;;;4993484;28;19991;-67
2021/09/08 13:49:14;;;;;;;;;;;23.90;55.60;;;;;;4992802;28;19930;-66
2021/09/08 13:51:41;;;;;;;;;;;23.90;55.60;;;;;;5005733;28;19936;-66
2021/09/08 13:54:08;;;;;;;;;;;23.90;55.60;;;;;;4993105;28;19979;-67
2021/09/08 13:56:38;;;;;;;;;;;23.90;55.60;;;;;;4992975;28;19933;-66
2021/09/08 13:59:05;;;;;;;;;;;24.00;55.60;;;;;;4992280;28;19961;-67
2021/09/08 14:01:32;;;;;;;;;;;24.00;55.60;;;;;;4993276;28;19926;-66
2021/09/08 14:03:59;;;;;;;;;;;24.00;55.60;;;;;;4993039;28;20022;-66
2021/09/08 14:06:27;;;;;;;;;;;24.00;55.50;;;;;;4993075;28;19932;-67
2021/09/08 14:08:54;;;;;;;;;;;24.00;55.50;;;;;;4993265;28;19965;-67
2021/09/08 14:11:21;;;;;;;;;;;23.90;55.40;;;;;;4993107;28;19987;-66
2021/09/08 14:13:48;;;;;;;;;;;23.90;55.40;;;;;;4992658;28;19933;-66
2021/09/08 14:16:15;;;;;;;;;;;24.00;55.50;;;;;;4992258;28;19926;-66
2021/09/08 14:18:42;;;;;;;;;;;23.90;55.40;;;;;;4991439;28;19965;-66
2021/09/08 14:21:09;;;;;;;;;;;23.90;55.40;;;;;;4992526;28;20029;-66